sensor_id;sensor_type;location;lat;lon;timestamp;pressure;altitude;pressure_sealevel;temperature;humidity
61961;BME280;47923;42.506;24.192;2023-03-19T00:01:05;96052.91;;;-3.74;76.73
61961;BME280;47923;42.506;24.192;2023-03-19T00:03:31;96048.66;;;-3.75;76.20
61961;BME280;47923;42.506;24.192;2023-03-19T00:05:56;96039.66;;;-3.79;76.19
61961;BME280;47923;42.506;24.192;2023-03-19T00:08:22;96045.47;;;-3.77;76.29
61961;BME280;47923;42.506;24.192;2023-03-19T00:10:48;96067.19;;;-3.70;76.64
61961;BME280;47923;42.506;24.192;2023-03-19T00:13:13;95959.28;;;-4.31;77.02
61961;BME280;47923;42.506;24.192;2023-03-19T00:15:40;95773.16;;;-5.55;76.83
61961;BME280;47923;42.506;24.192;2023-03-19T00:18:06;96044.88;;;-3.84;76.97
61961;BME280;47923;42.506;24.192;2023-03-19T00:20:33;96039.88;;;-3.86;77.77
61961;BME280;47923;42.506;24.192;2023-03-19T00:22:58;95984.31;;;-4.33;77.26
61961;BME280;47923;42.506;24.192;2023-03-19T00:25:24;95837.50;;;-5.19;77.55
61961;BME280;47923;42.506;24.192;2023-03-19T00:27:49;96029.34;;;-4.13;77.15
61961;BME280;47923;42.506;24.192;2023-03-19T00:30:17;95911.50;;;-4.66;77.40
61961;BME280;47923;42.506;24.192;2023-03-19T00:32:43;95974.84;;;-4.29;77.17
61961;BME280;47923;42.506;24.192;2023-03-19T00:35:09;96037.44;;;-3.93;76.55
61961;BME280;47923;42.506;24.192;2023-03-19T00:37:35;96031.63;;;-3.95;76.74
61961;BME280;47923;42.506;24.192;2023-03-19T00:40:01;96034.00;;;-3.93;76.21
61961;BME280;47923;42.506;24.192;2023-03-19T00:42:26;96045.69;;;-3.84;76.81
61961;BME280;47923;42.506;24.192;2023-03-19T00:44:52;96003.50;;;-4.11;78.01
61961;BME280;47923;42.506;24.192;2023-03-19T00:47:17;96034.00;;;-3.93;78.46
61961;BME280;47923;42.506;24.192;2023-03-19T00:49:43;95927.41;;;-4.56;77.92
61961;BME280;47923;42.506;24.192;2023-03-19T00:52:08;96018.91;;;-3.98;78.04
61961;BME280;47923;42.506;24.192;2023-03-19T00:54:34;96010.94;;;-4.35;78.10
61961;BME280;47923;42.506;24.192;2023-03-19T00:56:59;95922.19;;;-4.78;77.83
61961;BME280;47923;42.506;24.192;2023-03-19T00:59:25;95975.00;;;-4.41;77.91
61961;BME280;47923;42.506;24.192;2023-03-19T01:01:51;95991.88;;;-4.42;77.95
61961;BME280;47923;42.506;24.192;2023-03-19T01:04:17;96011.06;;;-4.20;78.24
61961;BME280;47923;42.506;24.192;2023-03-19T01:06:43;96008.44;;;-4.20;78.43
61961;BME280;47923;42.506;24.192;2023-03-19T01:09:09;95995.00;;;-4.18;78.10
61961;BME280;47923;42.506;24.192;2023-03-19T01:11:35;95996.16;;;-4.36;77.58
61961;BME280;47923;42.506;24.192;2023-03-19T01:14:01;95645.75;;;-6.40;76.90
61961;BME280;47923;42.506;24.192;2023-03-19T01:16:27;96006.34;;;-4.18;77.05
61961;BME280;47923;42.506;24.192;2023-03-19T01:18:53;95998.19;;;-4.16;75.97
61961;BME280;47923;42.506;24.192;2023-03-19T01:21:19;95807.25;;;-5.43;76.78
61961;BME280;47923;42.506;24.192;2023-03-19T01:23:45;95171.25;;;-9.43;76.22
61961;BME280;47923;42.506;24.192;2023-03-19T01:26:10;95988.16;;;-4.14;76.64
61961;BME280;47923;42.506;24.192;2023-03-19T01:28:37;95905.38;;;-4.72;76.98
61961;BME280;47923;42.506;24.192;2023-03-19T01:31:06;95997.59;;;-4.23;77.40
61961;BME280;47923;42.506;24.192;2023-03-19T01:33:32;95725.50;;;-5.86;76.62
61961;BME280;47923;42.506;24.192;2023-03-19T01:35:58;95926.88;;;-4.58;76.40
61961;BME280;47923;42.506;24.192;2023-03-19T01:38:27;95823.75;;;-5.26;75.27
61961;BME280;47923;42.506;24.192;2023-03-19T01:40:53;95791.66;;;-5.50;76.48
61961;BME280;47923;42.506;24.192;2023-03-19T01:43:26;95991.28;;;-4.22;75.80
61961;BME280;47923;42.506;24.192;2023-03-19T01:45:56;95733.41;;;-5.80;76.31
61961;BME280;47923;42.506;24.192;2023-03-19T01:48:25;95988.63;;;-4.22;76.83
61961;BME280;47923;42.506;24.192;2023-03-19T01:50:52;95961.34;;;-4.38;76.29
61961;BME280;47923;42.506;24.192;2023-03-19T01:53:23;95151.44;;;-9.72;76.67
61961;BME280;47923;42.506;24.192;2023-03-19T01:55:49;95843.69;;;-5.35;77.95
61961;BME280;47923;42.506;24.192;2023-03-19T01:58:15;95984.97;;;-4.48;78.95
61961;BME280;47923;42.506;24.192;2023-03-19T02:00:41;95987.84;;;-4.55;79.28
61961;BME280;47923;42.506;24.192;2023-03-19T02:03:06;95977.28;;;-4.55;78.95
61961;BME280;47923;42.506;24.192;2023-03-19T02:05:33;95978.34;;;-4.51;78.00
61961;BME280;47923;42.506;24.192;2023-03-19T02:08:05;95870.72;;;-5.18;78.00
61961;BME280;47923;42.506;24.192;2023-03-19T02:10:32;95979.28;;;-4.35;78.11
61961;BME280;47923;42.506;24.192;2023-03-19T02:12:58;96028.88;;;-4.37;79.18
61961;BME280;47923;42.506;24.192;2023-03-19T02:15:24;95992.44;;;-4.40;nan
61961;BME280;47923;42.506;24.192;2023-03-19T02:17:49;95988.66;;;-4.49;79.28
61961;BME280;47923;42.506;24.192;2023-03-19T02:20:23;95984.59;;;-4.62;79.81
61961;BME280;47923;42.506;24.192;2023-03-19T02:23:01;95988.50;;;-4.64;80.54
61961;BME280;47923;42.506;24.192;2023-03-19T02:26:20;95991.66;;;-4.67;80.70
61961;BME280;47923;42.506;24.192;2023-03-19T02:28:20;95997.66;;;-4.72;80.69
61961;BME280;47923;42.506;24.192;2023-03-19T02:30:47;95478.06;;;-8.01;80.19
61961;BME280;47923;42.506;24.192;2023-03-19T02:33:15;95391.38;;;-8.72;79.73
61961;BME280;47923;42.506;24.192;2023-03-19T02:35:44;95997.91;;;-4.74;80.24
61961;BME280;47923;42.506;24.192;2023-03-19T02:38:11;95754.53;;;-6.24;80.67
61961;BME280;47923;42.506;24.192;2023-03-19T02:40:43;96005.09;;;-4.69;81.46
61961;BME280;47923;42.506;24.192;2023-03-19T02:43:10;95999.03;;;-4.69;81.07
61961;BME280;47923;42.506;24.192;2023-03-19T02:45:35;95883.41;;;-5.37;80.97
61961;BME280;47923;42.506;24.192;2023-03-19T02:48:01;95994.28;;;-4.67;80.61
61961;BME280;47923;42.506;24.192;2023-03-19T02:50:26;96006.16;;;-4.65;80.04
61961;BME280;47923;42.506;24.192;2023-03-19T02:52:52;96001.66;;;-4.69;80.13
61961;BME280;47923;42.506;24.192;2023-03-19T02:55:18;95824.19;;;-5.83;79.98
61961;BME280;47923;42.506;24.192;2023-03-19T02:57:45;95828.41;;;-5.82;79.65
61961;BME280;47923;42.506;24.192;2023-03-19T03:00:11;96006.13;;;-4.70;80.33
61961;BME280;47923;42.506;24.192;2023-03-19T03:02:38;95812.97;;;-6.00;80.84
61961;BME280;47923;42.506;24.192;2023-03-19T03:05:05;96001.34;;;-4.73;80.58
61961;BME280;47923;42.506;24.192;2023-03-19T03:07:31;96002.38;;;-4.74;80.56
61961;BME280;47923;42.506;24.192;2023-03-19T03:09:57;96018.72;;;-4.77;80.99
61961;BME280;47923;42.506;24.192;2023-03-19T03:12:22;96010.56;;;-4.76;80.58
61961;BME280;47923;42.506;24.192;2023-03-19T03:14:48;95736.50;;;-6.59;79.66
61961;BME280;47923;42.506;24.192;2023-03-19T03:17:14;96009.91;;;-4.61;80.25
61961;BME280;47923;42.506;24.192;2023-03-19T03:19:39;95978.31;;;-4.83;80.03
61961;BME280;47923;42.506;24.192;2023-03-19T03:22:05;95811.75;;;-5.88;79.86
61961;BME280;47923;42.506;24.192;2023-03-19T03:24:30;96026.28;;;-4.59;80.30
61961;BME280;47923;42.506;24.192;2023-03-19T03:26:56;96036.13;;;-4.76;80.94
61961;BME280;47923;42.506;24.192;2023-03-19T03:29:21;96022.34;;;-4.83;81.05
61961;BME280;47923;42.506;24.192;2023-03-19T03:31:47;95602.66;;;-7.65;81.85
61961;BME280;47923;42.506;24.192;2023-03-19T03:34:13;95978.91;;;-5.24;81.53
61961;BME280;47923;42.506;24.192;2023-03-19T03:36:38;96032.19;;;-4.95;81.51
61961;BME280;47923;42.506;24.192;2023-03-19T03:39:04;96030.69;;;-4.91;80.48
61961;BME280;47923;42.506;24.192;2023-03-19T03:41:30;96029.66;;;-4.85;79.25
61961;BME280;47923;42.506;24.192;2023-03-19T03:43:55;95913.06;;;-5.68;78.62
61961;BME280;47923;42.506;24.192;2023-03-19T03:46:22;96033.72;;;-4.78;77.93
61961;BME280;47923;42.506;24.192;2023-03-19T03:48:47;95821.75;;;-6.12;78.11
61961;BME280;47923;42.506;24.192;2023-03-19T03:51:14;96034.75;;;-4.79;78.31
61961;BME280;47923;42.506;24.192;2023-03-19T03:53:39;96030.84;;;-4.76;78.54
61961;BME280;47923;42.506;24.192;2023-03-19T03:56:05;96046.69;;;-4.71;78.89
61961;BME280;47923;42.506;24.192;2023-03-19T03:58:31;95860.41;;;-5.68;79.78
61961;BME280;47923;42.506;24.192;2023-03-19T04:00:56;96030.16;;;-4.66;80.24
61961;BME280;47923;42.506;24.192;2023-03-19T04:03:22;95761.06;;;-6.49;80.15
61961;BME280;47923;42.506;24.192;2023-03-19T04:05:48;95778.84;;;-6.56;80.51
61961;BME280;47923;42.506;24.192;2023-03-19T04:08:14;96032.31;;;-4.85;81.10
61961;BME280;47923;42.506;24.192;2023-03-19T04:10:40;96046.84;;;-4.83;81.30
61961;BME280;47923;42.506;24.192;2023-03-19T04:13:08;96041.75;;;-4.89;81.03
61961;BME280;47923;42.506;24.192;2023-03-19T04:15:34;95913.72;;;-5.78;82.04
61961;BME280;47923;42.506;24.192;2023-03-19T04:17:59;96042.50;;;-4.94;81.52
61961;BME280;47923;42.506;24.192;2023-03-19T04:20:25;96052.00;;;-4.93;81.49
61961;BME280;47923;42.506;24.192;2023-03-19T04:22:51;95729.41;;;-6.98;82.37
61961;BME280;47923;42.506;24.192;2023-03-19T04:25:17;95793.53;;;-6.60;81.90
61961;BME280;47923;42.506;24.192;2023-03-19T04:27:43;96023.38;;;-5.06;81.61
61961;BME280;47923;42.506;24.192;2023-03-19T04:30:09;96063.22;;;-4.81;81.58
61961;BME280;47923;42.506;24.192;2023-03-19T04:32:35;96064.63;;;-4.73;81.91
61961;BME280;47923;42.506;24.192;2023-03-19T04:35:01;96070.69;;;-4.73;81.65
61961;BME280;47923;42.506;24.192;2023-03-19T04:37:27;95935.22;;;-5.64;81.38
61961;BME280;47923;42.506;24.192;2023-03-19T04:39:53;96053.28;;;-4.95;81.72
61961;BME280;47923;42.506;24.192;2023-03-19T04:42:19;96069.63;;;-4.72;81.43
61961;BME280;47923;42.506;24.192;2023-03-19T04:44:45;96049.97;;;-5.08;81.40
61961;BME280;47923;42.506;24.192;2023-03-19T04:47:10;95810.78;;;-6.25;81.06
61961;BME280;47923;42.506;24.192;2023-03-19T04:49:36;96076.97;;;-4.52;80.65
61961;BME280;47923;42.506;24.192;2023-03-19T04:52:02;96068.88;;;-4.45;80.62
61961;BME280;47923;42.506;24.192;2023-03-19T04:54:28;96066.59;;;-4.36;79.94
61961;BME280;47923;42.506;24.192;2023-03-19T04:56:54;96072.78;;;-4.26;79.20
61961;BME280;47923;42.506;24.192;2023-03-19T04:59:20;96082.97;;;-4.34;78.01
61961;BME280;47923;42.506;24.192;2023-03-19T05:01:46;95714.69;;;-6.38;77.59
61961;BME280;47923;42.506;24.192;2023-03-19T05:04:12;95339.22;;;-8.57;76.47
61961;BME280;47923;42.506;24.192;2023-03-19T05:06:38;95430.34;;;-7.82;76.67
61961;BME280;47923;42.506;24.192;2023-03-19T05:09:05;96079.41;;;-3.59;77.47
61961;BME280;47923;42.506;24.192;2023-03-19T05:11:30;96074.47;;;-3.50;77.96
61961;BME280;47923;42.506;24.192;2023-03-19T05:13:56;96085.38;;;-3.37;77.67
61961;BME280;47923;42.506;24.192;2023-03-19T05:16:22;96083.41;;;-3.14;77.66
61961;BME280;47923;42.506;24.192;2023-03-19T05:18:47;96017.75;;;-3.33;76.90
61961;BME280;47923;42.506;24.192;2023-03-19T05:21:14;95890.94;;;-3.33;77.93
61961;BME280;47923;42.506;24.192;2023-03-19T05:23:40;96092.81;;;0.13;71.03
61961;BME280;47923;42.506;24.192;2023-03-19T05:26:05;95807.06;;;1.38;59.01
61961;BME280;47923;42.506;24.192;2023-03-19T05:28:31;95918.97;;;4.53;47.38
61961;BME280;47923;42.506;24.192;2023-03-19T05:30:57;96078.91;;;7.87;40.84
61961;BME280;47923;42.506;24.192;2023-03-19T05:33:23;95995.06;;;8.93;37.61
61961;BME280;47923;42.506;24.192;2023-03-19T05:35:49;96088.34;;;10.52;35.03
61961;BME280;47923;42.506;24.192;2023-03-19T05:38:15;95894.09;;;10.63;32.20
61961;BME280;47923;42.506;24.192;2023-03-19T05:40:41;96070.03;;;12.48;31.18
61961;BME280;47923;42.506;24.192;2023-03-19T05:43:10;96087.59;;;12.92;30.72
61961;BME280;47923;42.506;24.192;2023-03-19T05:45:36;96080.13;;;13.93;28.74
61961;BME280;47923;42.506;24.192;2023-03-19T05:48:03;96048.31;;;14.20;27.72
61961;BME280;47923;42.506;24.192;2023-03-19T05:50:29;96088.97;;;14.13;28.80
61961;BME280;47923;42.506;24.192;2023-03-19T05:52:56;96092.06;;;15.32;27.09
61961;BME280;47923;42.506;24.192;2023-03-19T05:55:22;96061.78;;;15.37;26.48
61961;BME280;47923;42.506;24.192;2023-03-19T05:57:47;96001.09;;;15.81;26.04
61961;BME280;47923;42.506;24.192;2023-03-19T06:00:13;96000.56;;;16.23;25.65
61961;BME280;47923;42.506;24.192;2023-03-19T06:02:40;96082.22;;;18.36;23.55
61961;BME280;47923;42.506;24.192;2023-03-19T06:05:06;96075.19;;;18.28;23.34
61961;BME280;47923;42.506;24.192;2023-03-19T06:07:32;96076.72;;;18.54;23.19
61961;BME280;47923;42.506;24.192;2023-03-19T06:09:58;95992.44;;;17.49;22.91
61961;BME280;47923;42.506;24.192;2023-03-19T06:12:23;96069.34;;;17.76;23.68
61961;BME280;47923;42.506;24.192;2023-03-19T06:14:49;95957.28;;;17.12;23.38
61961;BME280;47923;42.506;24.192;2023-03-19T06:17:15;96084.53;;;18.52;23.83
61961;BME280;47923;42.506;24.192;2023-03-19T06:19:41;96062.31;;;19.38;21.63
61961;BME280;47923;42.506;24.192;2023-03-19T06:22:07;96042.41;;;19.89;21.22
61961;BME280;47923;42.506;24.192;2023-03-19T06:24:36;96043.22;;;20.68;21.76
61961;BME280;47923;42.506;24.192;2023-03-19T06:27:02;96001.59;;;21.85;20.42
61961;BME280;47923;42.506;24.192;2023-03-19T06:29:27;95989.94;;;21.54;19.47
61961;BME280;47923;42.506;24.192;2023-03-19T06:31:53;95852.09;;;20.51;18.99
61961;BME280;47923;42.506;24.192;2023-03-19T06:34:19;96070.56;;;21.44;19.75
61961;BME280;47923;42.506;24.192;2023-03-19T06:36:45;95899.34;;;19.56;20.33
61961;BME280;47923;42.506;24.192;2023-03-19T06:39:10;96007.38;;;20.07;20.56
61961;BME280;47923;42.506;24.192;2023-03-19T06:41:36;96045.94;;;20.72;20.18
61961;BME280;47923;42.506;24.192;2023-03-19T06:44:02;96067.03;;;21.43;20.07
61961;BME280;47923;42.506;24.192;2023-03-19T06:46:28;96009.25;;;20.89;20.09
61961;BME280;47923;42.506;24.192;2023-03-19T06:48:54;96077.25;;;21.97;19.69
61961;BME280;47923;42.506;24.192;2023-03-19T06:51:20;96076.53;;;22.86;18.61
61961;BME280;47923;42.506;24.192;2023-03-19T06:53:45;95990.69;;;22.88;18.23
61961;BME280;47923;42.506;24.192;2023-03-19T06:56:11;95988.44;;;23.71;17.74
61961;BME280;47923;42.506;24.192;2023-03-19T06:58:36;96060.25;;;24.01;17.64
61961;BME280;47923;42.506;24.192;2023-03-19T07:01:02;96002.50;;;23.77;16.84
61961;BME280;47923;42.506;24.192;2023-03-19T07:03:28;95941.72;;;24.26;16.86
61961;BME280;47923;42.506;24.192;2023-03-19T07:05:53;96040.81;;;26.38;15.43
61961;BME280;47923;42.506;24.192;2023-03-19T07:08:19;95871.88;;;27.32;15.45
61961;BME280;47923;42.506;24.192;2023-03-19T07:10:45;96027.56;;;29.85;13.75
61961;BME280;47923;42.506;24.192;2023-03-19T07:13:10;95823.63;;;27.20;14.05
61961;BME280;47923;42.506;24.192;2023-03-19T07:15:36;96051.06;;;29.23;13.14
61961;BME280;47923;42.506;24.192;2023-03-19T07:18:01;95970.97;;;28.30;13.35
61961;BME280;47923;42.506;24.192;2023-03-19T07:20:27;95981.66;;;26.45;14.66
61961;BME280;47923;42.506;24.192;2023-03-19T07:22:53;96050.47;;;26.21;14.94
61961;BME280;47923;42.506;24.192;2023-03-19T07:25:19;96049.84;;;26.04;15.08
61961;BME280;47923;42.506;24.192;2023-03-19T07:27:45;96046.06;;;26.11;15.74
61961;BME280;47923;42.506;24.192;2023-03-19T07:30:12;96038.16;;;26.35;15.53
61961;BME280;47923;42.506;24.192;2023-03-19T07:32:38;96007.94;;;28.18;14.47
61961;BME280;47923;42.506;24.192;2023-03-19T07:35:05;96027.59;;;29.24;13.40
61961;BME280;47923;42.506;24.192;2023-03-19T07:37:31;96027.44;;;27.77;14.07
61961;BME280;47923;42.506;24.192;2023-03-19T07:39:57;95898.06;;;26.25;14.86
61961;BME280;47923;42.506;24.192;2023-03-19T07:42:26;95917.25;;;25.84;15.10
61961;BME280;47923;42.506;24.192;2023-03-19T07:44:54;95872.38;;;26.02;14.82
61961;BME280;47923;42.506;24.192;2023-03-19T07:47:40;96014.56;;;28.11;14.50
61961;BME280;47923;42.506;24.192;2023-03-19T07:53:19;95857.50;;;27.83;13.03
61961;BME280;47923;42.506;24.192;2023-03-19T07:56:14;95993.03;;;28.61;13.07
61961;BME280;47923;42.506;24.192;2023-03-19T08:01:31;96014.47;;;29.67;12.26
61961;BME280;47923;42.506;24.192;2023-03-19T08:10:01;95994.91;;;29.43;12.65
61961;BME280;47923;42.506;24.192;2023-03-19T08:12:28;96018.63;;;29.20;12.87
61961;BME280;47923;42.506;24.192;2023-03-19T08:15:09;96015.88;;;28.93;13.46
61961;BME280;47923;42.506;24.192;2023-03-19T08:17:44;95940.19;;;27.88;13.37
61961;BME280;47923;42.506;24.192;2023-03-19T08:23:27;95870.47;;;27.18;13.58
61961;BME280;47923;42.506;24.192;2023-03-19T08:26:03;96018.28;;;28.17;14.00
61961;BME280;47923;42.506;24.192;2023-03-19T08:28:31;96008.50;;;30.16;14.46
61961;BME280;47923;42.506;24.192;2023-03-19T08:31:27;96015.44;;;30.45;12.64
61961;BME280;47923;42.506;24.192;2023-03-19T08:33:55;95996.63;;;30.07;14.09
61961;BME280;47923;42.506;24.192;2023-03-19T08:36:43;95811.53;;;28.79;13.44
61961;BME280;47923;42.506;24.192;2023-03-19T08:39:11;96017.22;;;30.33;12.90
61961;BME280;47923;42.506;24.192;2023-03-19T08:41:37;96012.63;;;28.39;14.64
61961;BME280;47923;42.506;24.192;2023-03-19T08:44:18;95839.69;;;29.71;14.14
61961;BME280;47923;42.506;24.192;2023-03-19T08:46:44;95897.56;;;30.15;13.22
61961;BME280;47923;42.506;24.192;2023-03-19T08:49:12;96007.91;;;29.37;14.11
61961;BME280;47923;42.506;24.192;2023-03-19T08:51:38;95993.50;;;29.57;14.29
61961;BME280;47923;42.506;24.192;2023-03-19T08:54:05;95903.88;;;28.83;14.50
61961;BME280;47923;42.506;24.192;2023-03-19T08:56:31;96003.34;;;29.06;15.20
61961;BME280;47923;42.506;24.192;2023-03-19T08:58:57;95996.69;;;29.13;14.36
61961;BME280;47923;42.506;24.192;2023-03-19T09:01:22;95977.06;;;29.68;14.31
61961;BME280;47923;42.506;24.192;2023-03-19T09:03:48;95778.06;;;27.76;14.89
61961;BME280;47923;42.506;24.192;2023-03-19T09:06:14;95979.69;;;27.92;15.17
61961;BME280;47923;42.506;24.192;2023-03-19T09:08:39;95901.41;;;27.16;15.61
61961;BME280;47923;42.506;24.192;2023-03-19T09:11:06;95825.13;;;27.70;15.32
61961;BME280;47923;42.506;24.192;2023-03-19T09:13:32;95968.31;;;30.08;16.04
61961;BME280;47923;42.506;24.192;2023-03-19T09:15:58;95973.41;;;29.86;14.63
61961;BME280;47923;42.506;24.192;2023-03-19T09:18:23;95687.25;;;28.70;14.02
61961;BME280;47923;42.506;24.192;2023-03-19T09:20:51;95896.66;;;28.76;15.10
61961;BME280;47923;42.506;24.192;2023-03-19T09:23:17;95973.88;;;28.72;15.43
61961;BME280;47923;42.506;24.192;2023-03-19T09:25:42;95895.13;;;28.57;15.20
61961;BME280;47923;42.506;24.192;2023-03-19T09:28:08;95583.75;;;25.49;15.85
61961;BME280;47923;42.506;24.192;2023-03-19T09:30:34;95943.28;;;27.09;16.36
61961;BME280;47923;42.506;24.192;2023-03-19T09:33:00;95968.19;;;27.31;16.33
61961;BME280;47923;42.506;24.192;2023-03-19T09:35:25;95914.50;;;29.54;15.41
61961;BME280;47923;42.506;24.192;2023-03-19T09:37:56;95857.44;;;29.97;16.20
61961;BME280;47923;42.506;24.192;2023-03-19T09:40:26;95940.34;;;32.09;13.86
61961;BME280;47923;42.506;24.192;2023-03-19T09:43:34;95948.44;;;31.37;13.25
61961;BME280;47923;42.506;24.192;2023-03-19T09:45:58;95942.50;;;28.90;15.20
61961;BME280;47923;42.506;24.192;2023-03-19T09:48:37;95940.44;;;29.60;14.48
61961;BME280;47923;42.506;24.192;2023-03-19T09:51:07;95946.41;;;27.20;16.70
61961;BME280;47923;42.506;24.192;2023-03-19T09:53:53;95931.59;;;28.13;15.71
61961;BME280;47923;42.506;24.192;2023-03-19T09:56:21;95905.38;;;29.11;15.69
61961;BME280;47923;42.506;24.192;2023-03-19T09:58:46;95920.00;;;29.87;14.09
61961;BME280;47923;42.506;24.192;2023-03-19T10:01:34;95923.50;;;29.97;13.93
61961;BME280;47923;42.506;24.192;2023-03-19T10:07:02;95897.31;;;29.13;14.64
61961;BME280;47923;42.506;24.192;2023-03-19T10:09:47;95913.38;;;31.21;14.04
61961;BME280;47923;42.506;24.192;2023-03-19T10:12:23;95917.13;;;29.49;14.61
61961;BME280;47923;42.506;24.192;2023-03-19T10:17:56;95906.91;;;30.26;13.87
61961;BME280;47923;42.506;24.192;2023-03-19T10:20:34;95907.13;;;31.41;14.99
61961;BME280;47923;42.506;24.192;2023-03-19T10:25:52;95897.00;;;29.21;14.79
61961;BME280;47923;42.506;24.192;2023-03-19T10:28:20;95825.72;;;28.29;15.06
61961;BME280;47923;42.506;24.192;2023-03-19T10:31:12;95893.69;;;29.88;14.28
61961;BME280;47923;42.506;24.192;2023-03-19T10:33:44;95898.66;;;30.47;14.28
61961;BME280;47923;42.506;24.192;2023-03-19T10:36:19;95871.97;;;31.49;12.94
61961;BME280;47923;42.506;24.192;2023-03-19T10:38:46;95882.66;;;30.71;13.37
61961;BME280;47923;42.506;24.192;2023-03-19T10:43:52;95818.50;;;30.27;13.96
61961;BME280;47923;42.506;24.192;2023-03-19T10:46:19;95878.84;;;29.91;13.84
61961;BME280;47923;42.506;24.192;2023-03-19T10:48:46;95873.88;;;30.64;14.10
61961;BME280;47923;42.506;24.192;2023-03-19T10:51:20;95863.00;;;31.10;12.79
61961;BME280;47923;42.506;24.192;2023-03-19T10:53:46;95861.06;;;31.66;12.90
61961;BME280;47923;42.506;24.192;2023-03-19T10:56:25;95858.94;;;30.22;13.77
61961;BME280;47923;42.506;24.192;2023-03-19T10:58:59;95856.69;;;29.16;14.47
61961;BME280;47923;42.506;24.192;2023-03-19T11:01:34;95847.94;;;28.90;15.01
61961;BME280;47923;42.506;24.192;2023-03-19T11:04:01;95841.13;;;28.58;15.05
61961;BME280;47923;42.506;24.192;2023-03-19T11:06:36;95837.59;;;28.21;15.45
61961;BME280;47923;42.506;24.192;2023-03-19T11:11:44;95827.44;;;28.08;15.16
61961;BME280;47923;42.506;24.192;2023-03-19T11:14:27;95831.13;;;28.05;15.24
61961;BME280;47923;42.506;24.192;2023-03-19T11:19:30;95713.47;;;27.20;16.56
61961;BME280;47923;42.506;24.192;2023-03-19T11:22:19;95710.69;;;27.39;15.84
61961;BME280;47923;42.506;24.192;2023-03-19T11:24:58;95790.44;;;26.14;17.02
61961;BME280;47923;42.506;24.192;2023-03-19T11:27:33;95693.31;;;24.39;18.04
61961;BME280;47923;42.506;24.192;2023-03-19T11:30:00;95511.00;;;22.73;19.24
61961;BME280;47923;42.506;24.192;2023-03-19T11:35:20;95772.19;;;22.75;20.40
61961;BME280;47923;42.506;24.192;2023-03-19T11:56:31;95760.88;;;19.82;24.50
61961;BME280;47923;42.506;24.192;2023-03-19T12:02:16;95757.91;;;20.00;23.98
61961;BME280;47923;42.506;24.192;2023-03-19T12:05:09;95762.91;;;19.37;24.45
61961;BME280;47923;42.506;24.192;2023-03-19T12:07:58;95699.22;;;18.92;25.96
61961;BME280;47923;42.506;24.192;2023-03-19T12:13:18;95755.59;;;19.27;25.65
61961;BME280;47923;42.506;24.192;2023-03-19T12:16:16;95750.06;;;19.34;24.60
61961;BME280;47923;42.506;24.192;2023-03-19T12:24:40;95672.81;;;18.26;25.32
61961;BME280;47923;42.506;24.192;2023-03-19T12:34:59;95702.88;;;18.26;25.71
61961;BME280;47923;42.506;24.192;2023-03-19T12:37:40;95730.53;;;18.39;26.25
61961;BME280;47923;42.506;24.192;2023-03-19T12:42:45;95441.47;;;15.96;26.32
61961;BME280;47923;42.506;24.192;2023-03-19T12:45:22;95721.56;;;17.72;26.41
61961;BME280;47923;42.506;24.192;2023-03-19T12:47:56;95716.78;;;17.90;26.26
61961;BME280;47923;42.506;24.192;2023-03-19T12:50:24;95715.69;;;17.74;26.54
61961;BME280;47923;42.506;24.192;2023-03-19T12:52:54;95489.69;;;16.13;27.10
61961;BME280;47923;42.506;24.192;2023-03-19T12:57:57;95700.50;;;17.58;26.82
61961;BME280;47923;42.506;24.192;2023-03-19T13:00:39;95588.06;;;16.97;26.32
61961;BME280;47923;42.506;24.192;2023-03-19T13:03:15;95540.56;;;16.77;26.27
61961;BME280;47923;42.506;24.192;2023-03-19T13:06:07;95618.75;;;17.23;26.20
61961;BME280;47923;42.506;24.192;2023-03-19T13:08:43;95694.16;;;17.83;26.32
61961;BME280;47923;42.506;24.192;2023-03-19T13:11:15;95468.59;;;16.42;25.82
61961;BME280;47923;42.506;24.192;2023-03-19T13:13:57;95695.78;;;17.73;25.38
61961;BME280;47923;42.506;24.192;2023-03-19T13:16:39;95684.53;;;17.57;25.56
61961;BME280;47923;42.506;24.192;2023-03-19T13:21:58;95636.69;;;17.27;25.70
61961;BME280;47923;42.506;24.192;2023-03-19T13:24:45;95649.78;;;17.54;25.62
61961;BME280;47923;42.506;24.192;2023-03-19T13:27:51;95679.16;;;17.32;25.70
61961;BME280;47923;42.506;24.192;2023-03-19T13:30:21;95618.81;;;17.08;25.51
61961;BME280;47923;42.506;24.192;2023-03-19T13:36:04;95647.59;;;17.24;25.85
61961;BME280;47923;42.506;24.192;2023-03-19T13:38:45;95612.97;;;17.06;25.35
61961;BME280;47923;42.506;24.192;2023-03-19T13:44:47;95661.56;;;17.44;25.78
61961;BME280;47923;42.506;24.192;2023-03-19T13:52:54;95656.44;;;17.53;25.26
61961;BME280;47923;42.506;24.192;2023-03-19T13:55:52;95662.81;;;17.28;26.37
61961;BME280;47923;42.506;24.192;2023-03-19T13:58:47;95659.72;;;17.16;26.24
61961;BME280;47923;42.506;24.192;2023-03-19T14:01:55;95645.66;;;17.17;26.63
61961;BME280;47923;42.506;24.192;2023-03-19T14:04:33;95653.44;;;17.26;26.69
61961;BME280;47923;42.506;24.192;2023-03-19T14:07:26;95644.94;;;17.06;26.55
61961;BME280;47923;42.506;24.192;2023-03-19T14:10:23;95654.28;;;17.12;26.37
61961;BME280;47923;42.506;24.192;2023-03-19T14:13:13;95578.03;;;16.69;26.74
61961;BME280;47923;42.506;24.192;2023-03-19T14:15:52;95637.47;;;17.17;26.31
61961;BME280;47923;42.506;24.192;2023-03-19T14:18:42;95561.28;;;16.49;26.89
61961;BME280;47923;42.506;24.192;2023-03-19T14:27:23;95356.75;;;14.87;28.44
61961;BME280;47923;42.506;24.192;2023-03-19T14:30:07;95652.78;;;16.86;28.99
61961;BME280;47923;42.506;24.192;2023-03-19T14:32:51;95481.97;;;15.69;30.31
61961;BME280;47923;42.506;24.192;2023-03-19T14:35:25;95532.94;;;15.83;30.26
61961;BME280;47923;42.506;24.192;2023-03-19T14:38:03;95455.91;;;15.32;30.00
61961;BME280;47923;42.506;24.192;2023-03-19T14:40:44;95624.78;;;16.36;30.36
61961;BME280;47923;42.506;24.192;2023-03-19T14:46:08;95631.03;;;16.04;30.28